createdAt,value
2018-09-11T00:01:18.087Z,19.01
2018-09-11T00:03:49.121Z,19.04
2018-09-11T00:06:19.988Z,19.06
2018-09-11T00:08:51.045Z,19.07
2018-09-11T00:11:22.161Z,19.08
2018-09-11T00:13:52.964Z,19.09
2018-09-11T00:16:24.080Z,19.09
2018-09-11T00:18:56.561Z,19.10
2018-09-11T00:21:26.435Z,19.09
2018-09-11T00:23:56.970Z,19.08
2018-09-11T00:26:27.892Z,19.08
2018-09-11T00:28:58.656Z,19.07
2018-09-11T00:31:29.623Z,19.06
2018-09-11T00:34:00.286Z,19.03
2018-09-11T00:36:31.024Z,19.01
2018-09-11T00:39:01.717Z,19.01
2018-09-11T00:41:33.145Z,19.00
2018-09-11T00:44:03.941Z,19.00
2018-09-11T00:46:34.840Z,18.98
2018-09-11T00:49:06.025Z,18.95
2018-09-11T00:51:37.230Z,18.96
2018-09-11T00:54:07.864Z,18.95
2018-09-11T00:56:39.160Z,18.92
2018-09-11T00:59:10.060Z,18.85
2018-09-11T01:01:46.078Z,18.87
2018-09-11T01:04:15.871Z,18.86
2018-09-11T01:06:45.656Z,18.86
2018-09-11T01:09:15.534Z,18.87
2018-09-11T01:11:45.288Z,18.78
2018-09-11T01:14:16.053Z,18.73
2018-09-11T01:16:46.800Z,18.74
2018-09-11T01:19:17.716Z,18.74
2018-09-11T01:21:48.989Z,18.75
2018-09-11T01:24:19.784Z,18.74
2018-09-11T01:26:50.629Z,18.73
2018-09-11T01:29:22.031Z,18.74
2018-09-11T01:31:52.397Z,18.74
2018-09-11T01:34:22.900Z,18.73
2018-09-11T01:36:53.659Z,18.75
2018-09-11T01:39:25.437Z,18.73
2018-09-11T01:41:55.900Z,18.71
2018-09-11T01:44:26.721Z,18.70
2018-09-11T01:46:57.940Z,18.69
2018-09-11T01:49:28.723Z,18.69
2018-09-11T01:51:59.954Z,18.69
2018-09-11T01:54:30.752Z,18.69
2018-09-11T01:57:01.901Z,18.66
2018-09-11T01:59:32.755Z,18.66
2018-09-11T02:02:03.920Z,18.62
2018-09-11T02:04:34.826Z,18.61
2018-09-11T02:07:05.709Z,18.52
2018-09-11T02:09:37.147Z,18.51
2018-09-11T02:12:09.164Z,18.51
2018-09-11T02:14:39.018Z,18.52
2018-09-11T02:17:10.137Z,18.55
2018-09-11T02:19:40.916Z,18.54
2018-09-11T02:22:11.853Z,18.53
2018-09-11T02:24:43.388Z,18.51
2018-09-11T02:27:13.809Z,18.49
2018-09-11T02:29:44.632Z,18.42
2018-09-11T02:32:15.945Z,18.41
2018-09-11T02:34:49.620Z,18.42
2018-09-11T02:37:19.380Z,18.42
2018-09-11T02:39:49.102Z,18.40
2018-09-11T02:42:19.893Z,18.40
2018-09-11T02:44:50.765Z,18.39
2018-09-11T02:47:22.045Z,18.39
2018-09-11T02:49:53.591Z,18.39
2018-09-11T02:52:24.294Z,18.37
2018-09-11T02:54:54.969Z,18.37
2018-09-11T02:57:25.783Z,18.36
2018-09-11T02:59:56.925Z,18.36
2018-09-11T03:02:27.749Z,18.35
2018-09-11T03:04:58.876Z,18.34
2018-09-11T03:07:29.688Z,18.34
2018-09-11T03:10:00.933Z,18.33
2018-09-11T03:12:31.769Z,18.31
2018-09-11T03:15:02.651Z,18.26
2018-09-11T03:17:33.904Z,18.27
2018-09-11T03:20:04.749Z,18.25
2018-09-11T03:22:35.990Z,18.23
2018-09-11T03:25:06.825Z,18.22
2018-09-11T03:27:37.739Z,18.24
2018-09-11T03:30:10.364Z,18.26
2018-09-11T03:32:40.173Z,18.23
2018-09-11T03:35:10.905Z,18.23
2018-09-11T03:37:41.688Z,18.21
2018-09-11T03:40:12.921Z,18.20
2018-09-11T03:42:43.863Z,18.21
2018-09-11T03:45:14.706Z,18.19
2018-09-11T03:47:45.974Z,18.19
2018-09-11T03:50:16.681Z,18.18
2018-09-11T03:52:48.264Z,18.19
2018-09-11T03:55:18.933Z,18.17
2018-09-11T03:57:49.823Z,18.15
2018-09-11T04:00:20.536Z,18.14
2018-09-11T04:02:52.058Z,18.12
2018-09-11T04:05:22.806Z,18.10
2018-09-11T04:07:56.414Z,18.09
2018-09-11T04:10:26.740Z,18.09
2018-09-11T04:12:57.083Z,18.08
2018-09-11T04:15:26.997Z,18.02
2018-09-11T04:17:57.889Z,17.89
2018-09-11T04:20:28.616Z,17.89
2018-09-11T04:23:00.256Z,17.86
2018-09-11T04:25:30.845Z,17.87
2018-09-11T04:28:01.994Z,17.85
2018-09-11T04:30:32.758Z,17.86
2018-09-11T04:33:03.832Z,18.13
2018-09-11T04:35:34.649Z,18.35
2018-09-11T04:38:06.526Z,18.57
2018-09-11T04:40:36.973Z,18.72
2018-09-11T04:43:08.382Z,18.86
2018-09-11T04:45:39.033Z,19.01
2018-09-11T04:48:09.850Z,19.07
2018-09-11T04:50:40.639Z,19.20
2018-09-11T04:53:11.256Z,19.27
2018-09-11T04:55:41.768Z,19.26
2018-09-11T04:58:13.009Z,19.29
2018-09-11T05:00:43.701Z,19.29
2018-09-11T05:03:15.037Z,19.29
2018-09-11T05:05:45.725Z,19.28
2018-09-11T05:08:16.989Z,19.33
2018-09-11T05:10:47.760Z,19.27
2018-09-11T05:13:18.724Z,19.17
2018-09-11T05:15:50.170Z,19.26
2018-09-11T05:18:21.129Z,19.27
2018-09-11T05:20:51.840Z,19.31
2018-09-11T05:23:22.654Z,19.22
2018-09-11T05:25:53.833Z,19.13
2018-09-11T05:28:24.983Z,19.08
2018-09-11T05:30:55.626Z,19.04
2018-09-11T05:33:27.628Z,18.99
2018-09-11T05:35:57.752Z,18.92
2018-09-11T05:38:28.963Z,18.94
2018-09-11T05:40:59.689Z,18.88
2018-09-11T05:43:29.563Z,18.88
2018-09-11T05:46:00.794Z,18.88
2018-09-11T05:48:31.693Z,18.86
2018-09-11T05:51:03.028Z,18.85
2018-09-11T05:53:34.004Z,18.83
2018-09-11T05:56:04.667Z,18.81
2018-09-11T05:58:36.005Z,18.80
2018-09-11T06:01:06.701Z,18.80
2018-09-11T06:03:38.149Z,18.80
2018-09-11T06:06:08.841Z,18.80
2018-09-11T06:08:39.689Z,18.79
2018-09-11T06:11:11.225Z,18.81
2018-09-11T06:13:42.014Z,18.93
2018-09-11T06:16:12.828Z,18.99
2018-09-11T06:18:43.736Z,18.96
2018-09-11T06:21:14.965Z,18.96
2018-09-11T06:23:46.029Z,18.90
2018-09-11T06:26:16.711Z,18.91
2018-09-11T06:28:48.030Z,18.90
2018-09-11T06:31:18.574Z,18.98
2018-09-11T06:33:49.193Z,18.99
2018-09-11T06:36:20.057Z,18.99
2018-09-11T06:38:50.790Z,19.00
2018-09-11T06:41:22.166Z,18.99
2018-09-11T06:43:52.392Z,18.98
2018-09-11T06:46:22.832Z,18.97
2018-09-11T06:48:54.048Z,18.94
2018-09-11T06:51:24.757Z,18.88
2018-09-11T06:53:56.116Z,18.86
2018-09-11T06:56:26.801Z,18.85
2018-09-11T06:58:58.189Z,18.87
2018-09-11T07:01:28.873Z,18.86
2018-09-11T07:03:59.688Z,18.85
2018-09-11T07:06:30.808Z,18.88
2018-09-11T07:09:01.685Z,18.93
2018-09-11T07:11:32.912Z,18.96
2018-09-11T07:14:04.049Z,19.01
2018-09-11T07:16:34.741Z,18.99
2018-09-11T07:19:05.970Z,19.09
2018-09-11T07:21:36.633Z,19.10
2018-09-11T07:24:08.417Z,19.15
2018-09-11T07:26:39.030Z,19.18
2018-09-11T07:29:09.877Z,19.22
2018-09-11T07:31:40.386Z,19.23
2018-09-11T07:34:10.916Z,19.27
2018-09-11T07:36:41.573Z,19.32
2018-09-11T07:39:13.043Z,19.38
2018-09-11T07:41:43.753Z,19.46
2018-09-11T07:44:14.946Z,19.52
2018-09-11T07:46:45.634Z,19.56
2018-09-11T07:49:16.913Z,19.61
2018-09-11T07:51:47.866Z,19.64
2018-09-11T07:54:18.620Z,19.77
2018-09-11T07:56:49.889Z,19.89
2018-09-11T07:59:20.676Z,19.99
2018-09-11T08:01:51.804Z,20.10
2018-09-11T08:04:23.138Z,20.12
2018-09-11T08:06:54.240Z,20.16
2018-09-11T08:09:24.955Z,20.21
2018-09-11T08:11:55.660Z,20.23
2018-09-11T08:14:26.761Z,20.20
2018-09-11T08:16:57.890Z,20.25
2018-09-11T08:19:28.644Z,20.29
2018-09-11T08:21:59.953Z,20.31
2018-09-11T08:24:30.820Z,20.36
2018-09-11T08:27:01.627Z,20.45
2018-09-11T08:29:32.993Z,20.57
2018-09-11T08:32:03.373Z,20.68
2018-09-11T08:34:33.841Z,20.77
2018-09-11T08:37:04.614Z,20.91
2018-09-11T08:39:35.876Z,20.97
2018-09-11T08:42:06.711Z,21.05
2018-09-11T08:44:37.909Z,21.10
2018-09-11T08:47:08.740Z,21.20
2018-09-11T08:49:39.859Z,21.44
2018-09-11T08:52:10.667Z,21.62
2018-09-11T08:54:41.558Z,21.76
2018-09-11T08:57:12.994Z,21.99
2018-09-11T08:59:43.760Z,22.20
2018-09-11T09:02:15.048Z,22.33
2018-09-11T09:04:45.753Z,22.28
2018-09-11T09:07:16.695Z,22.31
2018-09-11T09:09:47.974Z,22.42
2018-09-11T09:12:18.794Z,22.58
2018-09-11T09:14:49.698Z,22.63
2018-09-11T09:17:20.882Z,22.77
2018-09-11T09:19:51.814Z,22.97
2018-09-11T09:22:22.656Z,23.01
2018-09-11T09:24:54.332Z,23.01
2018-09-11T09:27:24.939Z,23.07
2018-09-11T09:29:55.808Z,23.18
2018-09-11T09:32:26.662Z,23.33
2018-09-11T09:34:57.977Z,23.44
2018-09-11T09:37:28.848Z,23.47
2018-09-11T09:39:59.636Z,23.56
2018-09-11T09:42:30.888Z,23.66
2018-09-11T09:45:02.213Z,23.70
2018-09-11T09:50:01.788Z,23.75
2018-09-11T09:52:35.249Z,23.80
2018-09-11T09:55:05.905Z,23.85
2018-09-11T09:57:36.750Z,23.92
2018-09-11T10:00:08.161Z,23.96
2018-09-11T10:02:38.872Z,23.98
2018-09-11T10:05:09.961Z,24.05
2018-09-11T10:07:40.693Z,24.19
2018-09-11T10:10:11.813Z,24.42
2018-09-11T10:12:42.728Z,24.52
2018-09-11T10:15:13.575Z,24.67
2018-09-11T10:17:45.153Z,24.89
2018-09-11T10:20:15.952Z,24.99
2018-09-11T10:22:46.733Z,25.00
2018-09-11T10:25:17.656Z,25.02
2018-09-11T10:27:48.996Z,25.20
2018-09-11T10:30:19.973Z,25.26
2018-09-11T10:32:50.648Z,25.37
2018-09-11T10:35:22.378Z,25.38
2018-09-11T10:37:53.067Z,25.58
2018-09-11T10:40:23.928Z,25.59
2018-09-11T10:42:59.563Z,25.52
2018-09-11T10:45:34.512Z,25.63
2018-09-11T10:48:08.722Z,25.86
2018-09-11T10:50:38.433Z,25.97
2018-09-11T10:53:08.370Z,26.17
2018-09-11T10:55:38.557Z,26.31
2018-09-11T10:58:08.446Z,26.53
2018-09-11T11:00:38.241Z,26.57
2018-09-11T11:03:08.825Z,26.51
2018-09-11T11:05:38.476Z,26.49
2018-09-11T11:08:08.370Z,26.33
2018-09-11T11:10:38.381Z,26.20
2018-09-11T11:13:08.541Z,26.32
2018-09-11T11:15:38.770Z,26.26
2018-09-11T11:18:08.256Z,26.35
2018-09-11T11:20:47.365Z,26.53
2018-09-11T11:23:17.498Z,26.75
2018-09-11T11:25:47.550Z,26.94
2018-09-11T11:28:17.241Z,27.25
2018-09-11T11:30:47.737Z,27.60
2018-09-11T11:33:17.464Z,27.89
2018-09-11T11:35:47.642Z,27.89
2018-09-11T11:38:17.509Z,27.96
2018-09-11T11:40:47.877Z,28.11
2018-09-11T11:43:18.535Z,28.12
2018-09-11T11:45:50.141Z,28.05
2018-09-11T11:48:20.906Z,28.12
2018-09-11T11:50:51.733Z,28.33
2018-09-11T11:53:22.512Z,28.26
2018-09-11T11:55:53.960Z,28.59
2018-09-11T11:58:24.629Z,28.81
2018-09-11T12:00:56.556Z,28.80
2018-09-11T12:03:26.891Z,29.04
2018-09-11T12:05:57.640Z,28.98
2018-09-11T12:13:21.687Z,28.22
2018-09-11T12:15:51.336Z,28.15
2018-09-11T12:18:21.403Z,28.20
2018-09-11T12:20:51.149Z,28.34
2018-09-11T12:23:20.881Z,28.43
2018-09-11T12:25:50.919Z,28.59
2018-09-11T12:28:20.950Z,28.63
2018-09-11T12:30:50.981Z,28.82
2018-09-11T12:33:21.105Z,28.88
2018-09-11T12:35:50.904Z,28.87
2018-09-11T12:38:20.877Z,28.77
2018-09-11T12:40:51.008Z,28.78
2018-09-11T12:43:20.922Z,28.74
2018-09-11T12:45:50.994Z,28.70
2018-09-11T12:48:21.526Z,28.60
2018-09-11T12:50:51.264Z,28.65
2018-09-11T12:53:21.053Z,28.53
2018-09-11T12:55:50.952Z,28.40
2018-09-11T12:58:20.909Z,28.43
2018-09-11T13:00:51.016Z,28.38
2018-09-11T13:03:20.933Z,28.21
2018-09-11T13:05:50.990Z,28.34
2018-09-11T13:08:20.962Z,28.51
2018-09-11T13:10:51.013Z,28.61
2018-09-11T13:13:20.927Z,28.62
2018-09-11T13:15:50.880Z,28.60
2018-09-11T13:18:20.920Z,28.74
2018-09-11T13:20:50.862Z,28.69
2018-09-11T13:23:20.882Z,28.70
2018-09-11T13:25:51.072Z,28.86
2018-09-11T13:28:20.899Z,29.01
2018-09-11T13:30:51.183Z,29.09
2018-09-11T13:33:20.850Z,29.24
2018-09-11T13:35:50.853Z,29.37
2018-09-11T13:38:21.231Z,29.60
2018-09-11T13:40:50.917Z,29.78
2018-09-11T13:43:20.982Z,29.88
2018-09-11T13:45:50.976Z,29.93
2018-09-11T13:48:21.317Z,29.84
2018-09-11T13:50:51.201Z,29.96
2018-09-11T13:53:20.880Z,29.92
2018-09-11T13:55:56.723Z,29.96
2018-09-11T13:58:30.955Z,29.90
2018-09-11T14:01:04.841Z,29.94
2018-09-11T14:03:34.561Z,30.10
2018-09-11T14:06:05.007Z,30.41
2018-09-11T14:08:35.203Z,30.47
2018-09-11T14:11:05.197Z,30.47
2018-09-11T14:13:35.056Z,30.62
2018-09-11T14:16:05.126Z,30.65
2018-09-11T14:18:35.041Z,30.56
2018-09-11T14:21:10.814Z,30.57
2018-09-11T14:23:40.606Z,30.44
2018-09-11T14:26:11.741Z,30.42
2018-09-11T14:28:41.521Z,30.36
2018-09-11T14:31:11.381Z,30.40
2018-09-11T14:33:41.148Z,30.38
2018-09-11T14:36:11.057Z,30.37
2018-09-11T14:38:41.516Z,30.24
2018-09-11T14:41:11.259Z,30.16
2018-09-11T14:43:41.160Z,30.09
2018-09-11T14:46:11.179Z,30.01
2018-09-11T14:48:40.955Z,30.01
2018-09-11T14:51:11.047Z,29.89
2018-09-11T14:53:41.016Z,29.89
2018-09-11T14:56:10.929Z,29.84
2018-09-11T14:58:41.100Z,29.77
2018-09-11T15:01:10.942Z,29.60
2018-09-11T15:03:47.670Z,29.48
2018-09-11T15:06:17.422Z,29.39
2018-09-11T15:08:47.200Z,29.32
2018-09-11T15:11:17.173Z,29.24
2018-09-11T15:13:47.173Z,29.19
2018-09-11T15:16:20.792Z,29.12
2018-09-11T15:18:55.423Z,29.04
2018-09-11T15:21:28.376Z,28.92
2018-09-11T15:23:58.260Z,28.82
2018-09-11T15:26:28.064Z,28.78
2018-09-11T15:28:57.917Z,28.73
2018-09-11T15:31:28.038Z,28.73
2018-09-11T15:33:57.997Z,28.73
2018-09-11T15:36:28.154Z,28.78
2018-09-11T15:38:58.191Z,28.86
2018-09-11T15:41:27.962Z,28.95
2018-09-11T15:43:57.994Z,29.01
2018-09-11T15:46:28.107Z,29.08
2018-09-11T15:48:58.037Z,29.02
2018-09-11T15:51:38.081Z,28.99
2018-09-11T15:54:08.086Z,29.02
2018-09-11T15:56:38.466Z,29.03
2018-09-11T15:59:08.394Z,29.04
2018-09-11T16:01:42.070Z,29.08
2018-09-11T16:04:12.075Z,29.09
2018-09-11T16:06:41.920Z,29.04
2018-09-11T16:09:13.243Z,28.95
2018-09-11T16:11:43.083Z,28.95
2018-09-11T16:14:13.034Z,28.97
2018-09-11T16:16:43.187Z,28.90
2018-09-11T16:19:13.241Z,28.95
2018-09-11T16:21:43.143Z,28.97
2018-09-11T16:24:12.924Z,28.95
2018-09-11T16:26:43.088Z,28.90
2018-09-11T16:29:12.953Z,28.83
2018-09-11T16:31:47.629Z,28.81
2018-09-11T16:34:17.288Z,28.68
2018-09-11T16:36:47.385Z,28.64
2018-09-11T16:39:17.130Z,28.56
2018-09-11T16:41:46.904Z,28.49
2018-09-11T16:44:17.264Z,28.40
2018-09-11T16:46:47.199Z,28.31
2018-09-11T16:49:17.297Z,28.12
2018-09-11T16:51:47.185Z,28.02
2018-09-11T16:54:16.873Z,27.90
2018-09-11T16:56:46.958Z,27.80
2018-09-11T16:59:16.910Z,27.72
2018-09-11T17:01:46.973Z,27.56
2018-09-11T17:04:17.025Z,27.56
2018-09-11T17:06:46.905Z,27.31
2018-09-11T17:09:16.977Z,27.16
2018-09-11T17:11:46.980Z,26.81
2018-09-11T17:14:16.893Z,26.71
2018-09-11T17:16:46.946Z,26.62
2018-09-11T17:19:16.889Z,26.65
2018-09-11T17:21:46.948Z,26.49
2018-09-11T17:24:16.945Z,26.25
2018-09-11T17:26:46.972Z,26.25
2018-09-11T17:29:17.410Z,26.13
2018-09-11T17:31:47.208Z,26.02
2018-09-11T17:34:16.974Z,25.97
2018-09-11T17:36:47.337Z,25.88
2018-09-11T17:39:17.505Z,25.89
2018-09-11T17:41:47.238Z,25.89
2018-09-11T17:44:17.160Z,25.89
2018-09-11T17:46:46.837Z,25.89
2018-09-11T17:49:16.958Z,25.89
2018-09-11T17:51:46.859Z,25.84
2018-09-11T17:54:16.912Z,25.76
2018-09-11T17:56:46.973Z,25.60
2018-09-11T17:59:16.977Z,25.53
2018-09-11T18:01:47.042Z,25.48
2018-09-11T18:04:17.000Z,25.38
2018-09-11T18:06:47.092Z,25.36
2018-09-11T18:09:17.017Z,25.28
2018-09-11T18:11:46.880Z,25.26
2018-09-11T18:14:16.967Z,25.18
2018-09-11T18:16:46.863Z,25.15
2018-09-11T18:19:17.098Z,25.11
2018-09-11T18:21:47.027Z,25.06
2018-09-11T18:24:16.914Z,24.96
2018-09-11T18:26:47.055Z,24.89
2018-09-11T18:29:17.162Z,24.77
2018-09-11T18:31:47.056Z,24.71
2018-09-11T18:34:16.985Z,24.62
2018-09-11T18:36:47.017Z,24.56
2018-09-11T18:39:17.018Z,24.50
2018-09-11T18:41:47.401Z,24.45
2018-09-11T18:44:17.144Z,24.42
2018-09-11T18:46:47.109Z,24.38
2018-09-11T18:49:17.607Z,24.32
2018-09-11T18:51:47.704Z,24.27
2018-09-11T18:54:17.928Z,24.21
2018-09-11T18:56:48.012Z,24.14
2018-09-11T18:59:18.906Z,24.10
2018-09-11T19:01:51.586Z,24.02
2018-09-11T19:04:24.166Z,23.88
2018-09-11T19:06:57.047Z,23.83
2018-09-11T19:09:35.261Z,23.80
2018-09-11T19:12:11.217Z,23.76
2018-09-11T19:14:41.158Z,23.72
2018-09-11T19:17:11.148Z,23.67
2018-09-11T19:19:41.156Z,23.61
2018-09-11T19:22:10.956Z,23.52
2018-09-11T19:24:40.914Z,23.49
2018-09-11T19:27:11.102Z,23.46
2018-09-11T19:29:41.103Z,23.45
2018-09-11T19:32:11.166Z,23.42
2018-09-11T19:34:40.977Z,23.39
2018-09-11T19:37:10.985Z,23.36
2018-09-11T19:39:40.925Z,23.36
2018-09-11T19:42:11.254Z,23.29
2018-09-11T19:44:40.993Z,23.21
2018-09-11T19:47:11.015Z,23.13
2018-09-11T19:49:40.917Z,23.04
2018-09-11T19:52:10.946Z,22.94
2018-09-11T19:54:41.425Z,22.88
2018-09-11T19:57:11.136Z,22.78
2018-09-11T19:59:40.964Z,22.69
2018-09-11T20:02:11.108Z,22.61
2018-09-11T20:04:40.832Z,22.54
2018-09-11T20:07:11.098Z,22.49
2018-09-11T20:09:40.753Z,22.41
2018-09-11T20:12:10.518Z,22.34
2018-09-11T20:14:40.261Z,22.28
2018-09-11T20:20:47.189Z,22.21
2018-09-11T20:23:16.945Z,22.12
2018-09-11T20:25:47.554Z,22.06
2018-09-11T20:28:17.337Z,21.98
2018-09-11T20:30:47.183Z,21.91
2018-09-11T20:33:17.393Z,21.88
2018-09-11T20:35:47.040Z,21.84
2018-09-11T20:38:17.158Z,21.81
2018-09-11T20:40:46.881Z,21.75
2018-09-11T20:43:16.940Z,21.71
2018-09-11T20:45:46.896Z,21.65
2018-09-11T20:48:16.870Z,21.62
2018-09-11T20:50:46.979Z,21.57
2018-09-11T20:53:16.956Z,21.50
2018-09-11T20:55:47.080Z,21.48
2018-09-11T20:58:17.044Z,21.42
2018-09-11T21:00:46.988Z,21.41
2018-09-11T21:03:17.282Z,21.36
2018-09-11T21:05:47.027Z,21.31
2018-09-11T21:08:17.034Z,21.27
2018-09-11T21:10:47.061Z,21.23
2018-09-11T21:13:16.931Z,21.16
2018-09-11T21:15:47.069Z,21.12
2018-09-11T21:18:17.757Z,21.07
2018-09-11T21:20:48.292Z,21.05
2018-09-11T21:23:18.386Z,20.95
2018-09-11T21:25:48.349Z,20.92
2018-09-11T21:28:18.198Z,20.85
2018-09-11T21:30:48.209Z,20.81
2018-09-11T21:33:18.024Z,20.75
2018-09-11T21:35:48.003Z,20.71
2018-09-11T21:38:18.461Z,20.62
2018-09-11T21:40:48.329Z,20.63
2018-09-11T21:43:18.098Z,20.60
2018-09-11T21:45:47.939Z,20.54
2018-09-11T21:48:18.044Z,20.51
2018-09-11T21:50:48.064Z,20.45
2018-09-11T21:53:17.983Z,20.40
2018-09-11T21:55:48.112Z,20.34
2018-09-11T21:58:18.386Z,20.29
2018-09-11T22:00:53.531Z,20.23
2018-09-11T22:03:23.371Z,20.17
2018-09-11T22:05:53.148Z,20.13
2018-09-11T22:08:23.017Z,20.04
2018-09-11T22:10:52.946Z,20.06
2018-09-11T22:13:22.969Z,19.74
2018-09-11T22:15:53.006Z,19.95
2018-09-11T22:18:22.988Z,19.92
2018-09-11T22:20:53.016Z,19.88
2018-09-11T22:23:23.030Z,19.85
2018-09-11T22:25:53.165Z,19.80
2018-09-11T22:28:23.164Z,19.77
2018-09-11T22:30:52.993Z,19.74
2018-09-11T22:33:23.059Z,19.71
2018-09-11T22:35:52.957Z,19.69
2018-09-11T22:38:22.943Z,19.69
2018-09-11T22:40:53.058Z,19.67
2018-09-11T22:43:23.013Z,19.66
2018-09-11T22:45:53.059Z,19.63
2018-09-11T22:48:23.012Z,19.61
2018-09-11T22:50:53.244Z,19.57
2018-09-11T22:53:23.047Z,19.54
2018-09-11T22:55:52.953Z,19.50
2018-09-11T22:58:22.961Z,19.47
2018-09-11T23:00:52.989Z,19.45
2018-09-11T23:03:22.994Z,19.40
2018-09-11T23:05:52.988Z,19.37
2018-09-11T23:08:23.085Z,19.36
2018-09-11T23:10:53.046Z,19.33
2018-09-11T23:13:22.889Z,19.29
2018-09-11T23:15:53.005Z,19.25
2018-09-11T23:18:22.945Z,19.20
2018-09-11T23:20:52.925Z,19.16
2018-09-11T23:23:22.966Z,19.12
2018-09-11T23:25:53.240Z,19.07
2018-09-11T23:28:23.221Z,19.06
2018-09-11T23:30:52.978Z,19.03
2018-09-11T23:33:23.051Z,19.00
2018-09-11T23:35:52.940Z,18.98
2018-09-11T23:38:22.897Z,18.95
2018-09-11T23:40:53.019Z,18.91
2018-09-11T23:43:22.971Z,18.87
2018-09-11T23:45:53.050Z,18.84
2018-09-11T23:48:22.923Z,18.73
2018-09-11T23:50:53.142Z,18.74
2018-09-11T23:53:22.884Z,18.74
2018-09-11T23:55:52.990Z,18.74
2018-09-11T23:58:22.914Z,18.72
